createdAt,value
2017-07-20T03:51:55.500Z,19.43
2017-07-20T03:54:22.268Z,20.50
2017-07-20T03:56:49.050Z,20.17
2017-07-20T03:59:16.060Z,21.30
2017-07-20T04:01:42.818Z,21.43
2017-07-20T04:04:09.559Z,21.20
2017-07-20T04:06:36.361Z,20.67
2017-07-20T04:09:03.174Z,20.10
2017-07-20T04:11:29.939Z,18.47
2017-07-20T04:13:56.868Z,19.20
2017-07-20T04:16:23.615Z,18.37
2017-07-20T04:18:50.375Z,18.17
2017-07-20T04:21:17.756Z,18.90
2017-07-20T04:23:44.525Z,18.70
2017-07-20T04:26:11.284Z,17.43
2017-07-20T04:28:38.085Z,16.73
2017-07-20T04:31:04.861Z,17.40
2017-07-20T04:33:31.632Z,17.03
2017-07-20T04:35:58.416Z,18.37
2017-07-20T04:38:25.531Z,17.40
2017-07-20T04:40:52.279Z,18.53
2017-07-20T04:43:19.105Z,17.47
2017-07-20T04:45:45.868Z,19.27
2017-07-20T04:48:12.613Z,19.60
2017-07-20T04:50:39.752Z,19.60
2017-07-20T04:53:06.495Z,20.60
2017-07-20T04:55:33.267Z,20.77
2017-07-20T04:58:00.079Z,19.50
2017-07-20T05:00:26.991Z,19.83
2017-07-20T05:02:53.743Z,19.67
2017-07-20T05:05:20.546Z,20.93
2017-07-20T05:07:47.304Z,19.33
2017-07-20T05:10:14.062Z,22.27
2017-07-20T05:12:40.848Z,22.40
2017-07-20T05:15:07.621Z,20.53
2017-07-20T05:17:34.399Z,21.30
2017-07-20T05:20:01.222Z,21.23
2017-07-20T05:22:27.972Z,22.20
2017-07-20T05:24:54.747Z,21.50
2017-07-20T05:27:21.800Z,21.30
2017-07-20T05:29:48.547Z,21.77
2017-07-20T05:32:15.311Z,20.80
2017-07-20T05:34:42.095Z,20.80
2017-07-20T05:37:08.875Z,20.30
2017-07-20T05:39:35.687Z,20.30
2017-07-20T05:42:02.602Z,21.03
2017-07-20T05:44:29.379Z,21.53
2017-07-20T05:46:56.160Z,20.43
2017-07-20T05:49:23.851Z,21.27
2017-07-20T05:51:50.620Z,22.47
2017-07-20T05:54:18.086Z,22.60
2017-07-20T05:56:44.871Z,22.50
2017-07-20T05:59:11.615Z,21.73
2017-07-20T06:01:38.589Z,20.37
2017-07-20T06:04:06.161Z,21.30
2017-07-20T06:06:33.438Z,21.97
2017-07-20T06:09:00.282Z,19.60
2017-07-20T06:11:27.094Z,20.20
2017-07-20T06:13:53.859Z,21.83
2017-07-20T06:16:20.627Z,22.20
2017-07-20T06:18:47.937Z,21.33
2017-07-20T06:21:14.712Z,21.67
2017-07-20T06:23:41.717Z,20.50
2017-07-20T06:26:08.518Z,23.10
2017-07-20T06:28:35.278Z,22.30
2017-07-20T06:31:02.410Z,21.33
2017-07-20T06:33:29.252Z,21.30
2017-07-20T06:35:55.992Z,24.53
2017-07-20T06:38:22.743Z,21.93
2017-07-20T06:40:49.560Z,22.70
2017-07-20T06:43:16.337Z,21.57
2017-07-20T06:45:43.319Z,22.07
2017-07-20T06:48:10.116Z,21.60
2017-07-20T06:50:36.883Z,21.87
2017-07-20T06:53:03.636Z,22.33
2017-07-20T06:55:30.420Z,20.00
2017-07-20T06:57:57.175Z,21.57
2017-07-20T07:00:23.920Z,22.50
2017-07-20T07:02:50.727Z,21.00
2017-07-20T07:05:17.495Z,19.30
2017-07-20T07:07:44.267Z,20.67
2017-07-20T07:10:11.746Z,19.87
2017-07-20T07:12:38.540Z,22.30
2017-07-20T07:15:05.914Z,23.03
2017-07-20T07:17:32.730Z,20.37
2017-07-20T07:19:59.485Z,21.30
2017-07-20T07:22:26.287Z,20.87
2017-07-20T07:24:53.077Z,18.40
2017-07-20T07:27:20.019Z,20.90
2017-07-20T07:29:46.796Z,18.90
2017-07-20T07:32:13.602Z,20.83
2017-07-20T07:34:41.083Z,19.40
2017-07-20T07:37:07.846Z,18.97
2017-07-20T07:39:34.656Z,19.60
2017-07-20T07:42:01.410Z,20.20
2017-07-20T07:44:28.167Z,21.40
2017-07-20T07:46:54.968Z,21.70
2017-07-20T07:49:21.742Z,21.60
2017-07-20T07:51:48.514Z,19.67
2017-07-20T07:54:15.669Z,21.07
2017-07-20T07:56:42.427Z,23.87
2017-07-20T07:59:10.194Z,20.37
2017-07-20T08:01:37.448Z,21.20
2017-07-20T08:04:04.211Z,20.70
2017-07-20T08:06:30.970Z,18.77
2017-07-20T08:08:57.770Z,21.97
2017-07-20T08:11:24.533Z,20.20
2017-07-20T08:13:51.275Z,21.70
2017-07-20T08:16:18.064Z,21.80
2017-07-20T08:18:44.823Z,20.13
2017-07-20T08:21:11.575Z,20.43
2017-07-20T08:23:38.382Z,19.63
2017-07-20T08:26:05.139Z,20.50
2017-07-20T08:28:31.894Z,22.07
2017-07-20T08:30:58.684Z,19.00
2017-07-20T08:33:25.666Z,20.33
2017-07-20T08:35:52.412Z,19.30
2017-07-20T08:38:19.911Z,19.00
2017-07-20T08:40:46.686Z,18.93
2017-07-20T08:43:13.459Z,21.57
2017-07-20T08:45:40.258Z,19.60
2017-07-20T08:48:07.043Z,20.80
2017-07-20T08:50:33.806Z,21.10
2017-07-20T08:53:00.600Z,19.90
2017-07-20T08:55:27.610Z,21.43
2017-07-20T08:57:55.041Z,21.30
2017-07-20T09:00:21.891Z,20.67
2017-07-20T09:02:48.656Z,20.90
2017-07-20T09:05:15.426Z,20.37
2017-07-20T09:07:42.235Z,21.53
2017-07-20T09:10:08.987Z,21.07
2017-07-20T09:12:35.751Z,22.03
2017-07-20T09:15:02.534Z,21.27
2017-07-20T09:17:29.932Z,20.47
2017-07-20T09:19:56.698Z,20.63
2017-07-20T09:22:23.524Z,20.57
2017-07-20T09:24:50.280Z,22.00
2017-07-20T09:27:17.333Z,21.23
2017-07-20T09:29:44.146Z,21.37
2017-07-20T09:32:11.596Z,21.30
2017-07-20T09:34:38.339Z,20.80
2017-07-20T09:37:05.141Z,20.20
2017-07-20T09:39:31.894Z,20.87
2017-07-20T09:41:58.662Z,21.23
2017-07-20T09:44:25.666Z,21.20
2017-07-20T09:46:52.441Z,21.10
2017-07-20T09:49:19.201Z,20.13
2017-07-20T09:51:46.001Z,20.63
2017-07-20T09:54:12.769Z,19.43
2017-07-20T09:56:39.515Z,19.03
2017-07-20T09:59:06.306Z,19.17
2017-07-20T10:01:33.051Z,20.80
2017-07-20T10:04:00.546Z,19.13
2017-07-20T10:06:28.343Z,19.77
2017-07-20T10:08:55.096Z,20.50
2017-07-20T10:11:21.839Z,20.03
2017-07-20T10:13:48.654Z,19.10
2017-07-20T10:16:15.424Z,19.90
2017-07-20T10:18:42.233Z,20.10
2017-07-20T10:21:09.034Z,19.83
2017-07-20T10:23:35.779Z,22.50
2017-07-20T10:26:02.611Z,21.53
2017-07-20T10:28:29.446Z,20.60
2017-07-20T10:30:56.191Z,19.50
2017-07-20T10:33:22.942Z,20.33
2017-07-20T10:35:49.728Z,21.17
2017-07-20T10:38:16.507Z,21.87
2017-07-20T10:40:43.270Z,19.80
2017-07-20T10:43:10.086Z,20.90
2017-07-20T10:45:36.886Z,21.10
2017-07-20T10:48:03.635Z,20.90
2017-07-20T10:50:30.423Z,20.50
2017-07-20T10:52:57.199Z,20.67
2017-07-20T10:55:23.967Z,20.70
2017-07-20T10:57:50.751Z,20.33
2017-07-20T11:00:17.526Z,20.33
2017-07-20T11:02:44.307Z,20.17
2017-07-20T11:05:11.119Z,20.20
2017-07-20T11:07:37.864Z,21.20
2017-07-20T11:10:04.614Z,21.47
2017-07-20T11:12:31.399Z,20.40
2017-07-20T11:14:58.273Z,20.50
2017-07-20T11:17:25.023Z,22.30
2017-07-20T11:19:51.807Z,21.40
2017-07-20T11:22:18.549Z,20.20
2017-07-20T11:24:45.295Z,21.27
2017-07-20T11:27:12.144Z,22.67
2017-07-20T11:29:39.919Z,22.03
2017-07-20T11:32:07.405Z,23.60
2017-07-20T11:34:34.235Z,21.00
2017-07-20T11:37:01.313Z,21.57
2017-07-20T11:39:28.083Z,22.27
2017-07-20T11:41:54.886Z,21.10
2017-07-20T11:44:21.656Z,20.53
2017-07-20T11:46:48.750Z,21.87
2017-07-20T11:49:15.562Z,21.27
2017-07-20T11:51:42.319Z,19.70
2017-07-20T11:54:09.099Z,20.30
2017-07-20T11:56:35.886Z,20.33
2017-07-20T11:59:02.953Z,19.90
2017-07-20T12:01:29.726Z,20.57
2017-07-20T12:03:56.526Z,19.93
2017-07-20T12:06:23.291Z,18.97
2017-07-20T12:08:50.071Z,19.27
2017-07-20T12:11:16.863Z,20.23
2017-07-20T12:13:43.634Z,20.90
2017-07-20T12:16:10.395Z,21.37
2017-07-20T12:18:37.207Z,21.80
2017-07-20T12:21:03.999Z,22.40
2017-07-20T12:23:31.375Z,22.47
2017-07-20T12:25:58.180Z,22.80
2017-07-20T12:28:24.942Z,23.17
2017-07-20T12:30:51.720Z,23.20
2017-07-20T12:33:18.525Z,25.07
2017-07-20T12:35:45.293Z,24.67
2017-07-20T12:38:12.070Z,24.63
2017-07-20T12:40:38.856Z,22.50
2017-07-20T12:43:05.613Z,22.87
2017-07-20T12:45:32.399Z,23.73
2017-07-20T12:47:59.207Z,22.47
2017-07-20T12:50:25.952Z,23.57
2017-07-20T12:52:53.211Z,23.17
2017-07-20T12:55:20.017Z,22.30
2017-07-20T12:57:46.759Z,23.60
2017-07-20T13:00:13.535Z,23.10
2017-07-20T13:02:40.353Z,22.50
2017-07-20T13:05:07.154Z,24.37
2017-07-20T13:07:33.943Z,24.90
2017-07-20T13:10:00.732Z,25.00
2017-07-20T13:12:27.501Z,26.30
2017-07-20T13:14:54.248Z,25.70
2017-07-20T13:17:21.035Z,24.87
2017-07-20T13:19:47.778Z,25.27
2017-07-20T13:22:14.554Z,25.40
2017-07-20T13:24:41.382Z,27.03
2017-07-20T13:27:08.145Z,26.30
2017-07-20T13:29:34.909Z,25.27
2017-07-20T13:32:01.710Z,23.37
2017-07-20T13:34:28.478Z,26.20
2017-07-20T13:36:55.262Z,23.77
2017-07-20T13:39:22.063Z,23.60
2017-07-20T13:41:48.816Z,21.90
2017-07-20T13:44:15.568Z,23.20
2017-07-20T13:46:42.363Z,23.17
2017-07-20T13:49:09.103Z,21.93
2017-07-20T13:51:35.866Z,23.50
2017-07-20T13:54:03.073Z,21.50
2017-07-20T13:56:29.830Z,21.40
2017-07-20T13:58:56.583Z,22.70
2017-07-20T14:01:23.395Z,21.60
2017-07-20T14:03:50.162Z,22.03
2017-07-20T14:06:16.964Z,21.07
2017-07-20T14:08:44.110Z,23.23
2017-07-20T14:11:10.878Z,20.20
2017-07-20T14:13:37.666Z,18.97
2017-07-20T14:16:04.482Z,19.10
2017-07-20T14:18:31.250Z,16.47
2017-07-20T14:20:58.017Z,16.80
2017-07-20T14:23:24.819Z,16.03
2017-07-20T14:25:51.558Z,16.70
2017-07-20T14:28:18.334Z,16.47
2017-07-20T14:30:45.429Z,16.50
2017-07-20T14:33:12.188Z,15.40
2017-07-20T14:35:38.954Z,16.97
2017-07-20T14:38:05.762Z,19.43
2017-07-20T14:40:32.535Z,16.90
2017-07-20T14:42:59.309Z,17.80
2017-07-20T14:45:26.110Z,17.87
2017-07-20T14:47:52.854Z,25.37
2017-07-20T14:50:19.606Z,18.83
2017-07-20T14:52:46.869Z,20.27
2017-07-20T14:55:13.637Z,19.30
2017-07-20T14:57:40.387Z,19.10
2017-07-20T15:00:07.200Z,18.67
2017-07-20T15:02:33.990Z,19.37
2017-07-20T15:05:00.736Z,18.37
2017-07-20T15:07:27.844Z,19.60
2017-07-20T15:09:54.778Z,17.90
2017-07-20T15:12:22.030Z,18.13
2017-07-20T15:14:48.815Z,16.07
2017-07-20T15:17:15.582Z,17.80
2017-07-20T15:19:42.365Z,17.60
2017-07-20T15:22:09.653Z,21.30
2017-07-20T15:24:36.429Z,18.40
2017-07-20T15:27:03.202Z,18.90
2017-07-20T15:29:30.023Z,18.97
2017-07-20T15:31:57.382Z,18.60
2017-07-20T15:34:24.150Z,17.87
2017-07-20T15:36:50.962Z,17.00
2017-07-20T15:39:17.731Z,17.20
2017-07-20T15:41:44.533Z,19.33
2017-07-20T15:44:11.323Z,19.07
2017-07-20T15:46:38.098Z,19.03
2017-07-20T15:49:04.852Z,19.00
2017-07-20T15:51:31.993Z,19.07
2017-07-20T15:53:58.774Z,18.00
2017-07-20T15:56:25.538Z,18.70
2017-07-20T15:58:52.350Z,20.53
2017-07-20T16:01:19.125Z,19.97
2017-07-20T16:03:45.878Z,18.30
2017-07-20T16:06:12.695Z,19.30
2017-07-20T16:08:39.463Z,19.00
2017-07-20T16:11:06.226Z,18.23
2017-07-20T16:13:33.370Z,16.93
2017-07-20T16:16:00.134Z,18.30
2017-07-20T16:18:26.911Z,21.10
2017-07-20T16:20:53.724Z,17.20
2017-07-20T16:23:20.466Z,17.77
2017-07-20T16:25:47.211Z,17.13
2017-07-20T16:28:14.000Z,16.23
2017-07-20T16:30:40.778Z,15.90
2017-07-20T16:33:07.532Z,18.57
2017-07-20T16:35:34.574Z,16.00
2017-07-20T16:38:01.321Z,16.27
2017-07-20T16:40:28.079Z,17.27
2017-07-20T16:42:54.892Z,15.33
2017-07-20T16:45:21.678Z,14.70
2017-07-20T16:47:48.425Z,15.53
2017-07-20T16:50:15.221Z,15.27
2017-07-20T16:52:41.972Z,15.30
2017-07-20T16:55:08.751Z,16.33
2017-07-20T16:57:35.560Z,17.20
2017-07-20T17:00:02.319Z,16.10
2017-07-20T17:02:29.063Z,15.70
2017-07-20T17:04:55.858Z,15.30
2017-07-20T17:07:22.637Z,15.57
2017-07-20T17:09:49.396Z,17.10
2017-07-20T17:12:16.202Z,17.90
2017-07-20T17:14:42.956Z,15.87
2017-07-20T17:17:09.703Z,14.60
2017-07-20T17:19:36.519Z,15.40
2017-07-20T17:22:03.295Z,16.60
2017-07-20T17:24:30.072Z,15.30
2017-07-20T17:26:56.859Z,15.67
2017-07-20T17:29:23.613Z,14.97
2017-07-20T17:31:50.374Z,14.97
2017-07-20T17:34:17.194Z,16.20
2017-07-20T17:36:44.834Z,12.57
2017-07-20T17:39:11.589Z,15.33
2017-07-20T17:41:38.388Z,14.10
2017-07-20T17:44:05.147Z,13.97
2017-07-20T17:46:31.892Z,14.50
2017-07-20T17:48:58.710Z,11.90
2017-07-20T17:51:25.482Z,13.63
2017-07-20T17:53:52.231Z,13.67
2017-07-20T17:56:19.023Z,12.73
2017-07-20T17:58:45.781Z,13.67
2017-07-20T18:01:12.558Z,13.40
2017-07-20T18:03:39.582Z,13.17
2017-07-20T18:06:06.351Z,12.90
2017-07-20T18:08:33.099Z,13.20
2017-07-20T18:10:59.910Z,13.33
2017-07-20T18:13:26.656Z,12.97
2017-07-20T18:15:53.430Z,13.10
2017-07-20T18:18:20.215Z,13.10
2017-07-20T18:20:47.876Z,13.40
2017-07-20T18:23:15.714Z,13.20
2017-07-20T18:25:43.209Z,12.60
2017-07-20T18:28:10.955Z,14.77
2017-07-20T18:30:38.564Z,14.53
2017-07-20T18:33:06.353Z,14.27
2017-07-20T18:35:33.123Z,12.80
2017-07-20T18:37:59.893Z,13.67
2017-07-20T18:40:26.697Z,14.40
2017-07-20T18:42:53.455Z,12.70
2017-07-20T18:45:20.216Z,13.63
2017-07-20T18:47:47.008Z,14.60
2017-07-20T18:50:13.768Z,14.00
2017-07-20T18:52:40.530Z,15.20
2017-07-20T18:55:07.348Z,14.40
2017-07-20T18:57:34.099Z,14.40
2017-07-20T19:00:00.884Z,13.57
2017-07-20T19:02:27.689Z,14.87
2017-07-20T19:04:54.427Z,37.67
2017-07-20T19:07:21.201Z,15.77
2017-07-20T19:09:47.990Z,15.30
2017-07-20T19:12:15.575Z,16.03
2017-07-20T19:14:42.325Z,15.33
2017-07-20T19:17:09.128Z,15.67
2017-07-20T19:19:35.878Z,14.93
2017-07-20T19:22:02.647Z,15.33
2017-07-20T19:24:29.435Z,15.00
2017-07-20T19:26:56.195Z,14.60
2017-07-20T19:29:22.948Z,14.20
2017-07-20T19:31:49.744Z,16.30
2017-07-20T19:34:16.525Z,15.33
2017-07-20T19:36:43.307Z,15.30
2017-07-20T19:39:11.018Z,15.30
2017-07-20T19:41:38.021Z,14.37
2017-07-20T19:44:04.776Z,16.00
2017-07-20T19:46:31.573Z,14.47
2017-07-20T19:48:58.331Z,15.17
2017-07-20T19:51:25.102Z,13.13
2017-07-20T19:53:52.324Z,13.83
2017-07-20T19:56:19.626Z,14.13
2017-07-20T19:58:46.994Z,13.17
2017-07-20T20:01:13.838Z,13.43
2017-07-20T20:03:40.606Z,14.67
2017-07-20T20:06:07.375Z,13.87
2017-07-20T20:08:34.190Z,14.47
2017-07-20T20:11:01.256Z,14.13
2017-07-20T20:13:28.007Z,13.90
2017-07-20T20:15:54.808Z,14.00
2017-07-20T20:18:21.572Z,14.47
2017-07-20T20:20:48.416Z,15.33
2017-07-20T20:23:15.235Z,14.47
2017-07-20T20:25:41.991Z,15.07
2017-07-20T20:28:09.571Z,17.23
2017-07-20T20:30:36.370Z,14.00
2017-07-20T20:33:03.144Z,13.40
2017-07-20T20:35:29.904Z,15.17
2017-07-20T20:37:57.345Z,14.83
2017-07-20T20:40:24.091Z,14.77
2017-07-20T20:42:50.841Z,15.97
2017-07-20T20:45:17.714Z,14.67
2017-07-20T20:47:44.485Z,15.23
2017-07-20T20:50:11.228Z,13.87
2017-07-20T20:52:38.042Z,13.73
2017-07-20T20:55:04.804Z,15.60
2017-07-20T20:57:31.571Z,16.77
2017-07-20T20:59:58.376Z,15.63
2017-07-20T21:02:25.247Z,15.07
2017-07-20T21:04:52.025Z,15.20
2017-07-20T21:07:18.824Z,14.90
2017-07-20T21:09:45.611Z,16.53
2017-07-20T21:12:12.378Z,16.83
2017-07-20T21:14:39.171Z,16.67
2017-07-20T21:17:05.958Z,15.87
2017-07-20T21:19:32.775Z,16.63
2017-07-20T21:21:59.554Z,16.63
2017-07-20T21:24:26.315Z,15.57
2017-07-20T21:26:53.064Z,15.90
2017-07-20T21:29:20.643Z,15.77
2017-07-20T21:31:47.406Z,15.70
2017-07-20T21:34:14.151Z,16.00
2017-07-20T21:36:40.953Z,16.40
2017-07-20T21:39:07.699Z,16.17
2017-07-20T21:41:34.452Z,16.27
2017-07-20T21:44:01.247Z,15.10
2017-07-20T21:46:28.007Z,15.97
2017-07-20T21:48:54.961Z,15.93
2017-07-20T21:51:22.016Z,15.40
2017-07-20T21:53:49.062Z,14.80
2017-07-20T21:56:15.808Z,15.70
2017-07-20T21:58:42.639Z,14.87
2017-07-20T22:01:09.410Z,16.10
2017-07-20T22:03:36.782Z,14.10
2017-07-20T22:06:03.583Z,15.97
2017-07-20T22:08:30.658Z,15.83
2017-07-20T22:10:57.434Z,16.13
2017-07-20T22:13:24.235Z,17.17
2017-07-20T22:15:50.991Z,15.03
2017-07-20T22:18:17.749Z,16.70
